KDMN/DMN METAR and TAF weather

Enter ICAO airport designator
Station Type Date Time Source
KDMN METAR 2022/06/28 14:53 UTC NOAA

KDMN 281453Z AUTO 05014KT 10SM BKN110 22/14 A3032 RMK AO2 SLP193 T02220139 51010


Station Type Date Time Source
KDMN Decoded METAR 2022/06/28 14:53 UTC NOAA

DEMING MUNICIPAL AIRPORT, NM, United States (KDMN) 32-16N 107-43W 1311M
Jun 28, 2022 - 10:53 AM EDT / 2022.06.28 1453 UTC
Wind: from the NE (050 degrees) at 16 MPH (14 KT):0
Visibility: 10 mile(s):0
Sky conditions: mostly cloudy
Temperature: 72.0 F (22.2 C)
Dew Point: 57.0 F (13.9 C)
Relative Humidity: 59%
Pressure (altimeter): 30.32 in. Hg (1026 hPa)
Pressure tendency: 0.03 inches (1.0 hPa) higher than three hours ago
ob: KDMN 281453Z AUTO 05014KT 10SM BKN110 22/14 A3032 RMK AO2 SLP193 T02220139 51010
cycle: 15

Station Type Date Time Source
KDMN TAF 2022/06/28 12:36 UTC NOAA

TAF KDMN 281133Z 2812/2912 06009KT P6SM VCSH BKN100
FM281500 08007KT P6SM SCT100 BKN200
FM281900 09010KT P6SM SCT090 SCT250
FM290000 10008KT P6SM SCT080 BKN150

Example: see airport list